Startpagina
METAR-TAF:

METAR-TAF

Vliegvelden :

Bric della Croce

Turijn, Italië

breedte: 45-02N, lengte: 007-44E, hoogte: 709 m

Actueel weer

Dit bericht is 31 minuten geleden gemaakt, om 16:55 UTC
Wind 16 kt uit het westnoordwesten
Temperatuur 3°C
Vochtigheid 35%
Druk 1003 hPa
Zicht 10 km of meer
Weinig wolken op 2000 ft

METAR: LIMK 261655Z 30016KT 9999 FEW020 03/M11 Q1003 RMK FEW VAL NIL VIS MIN 9999

Tijdstip: 18:26 (17:26 UTC)


TAF: ontbreekt

Waarnemingen en weersverwachtingen van meer dan 4000 vliegvelden (METAR en TAF).

De beschikbare stations zijn de gele en rode punten op de kaart.

Ga met uw muis naar het station om de naam te zien.

Klik dan om waarnemingen en weersverwachtingen te zien.

kaart wijzigen: klik op de groene knoppen met een zwart kruis om in te zoomen, op de groene knop met een streepje om uit te zoomen of op de groene pijlen voor aangrenzende kaarten.


METAR-TAF: